Ana Sayfa
METAR-TAF:

METAR-TAF

Havaalanları :

Padang, Endonezya

Enlem: 00-47-12S, Boylam: 100-16-50E, yükseklik: 5 m

METAR: eksik

Saat: 11:52 (04:52 UTC)

Tahmin

Rapor saat 23:00 UTC de 5 saat ve 52 dakika önce yapıldı.
Ayın 21'si saat 00 UTC'den ayın 21'si saat 24 UTC'ye kadar geçerli Tahmin
Rüzgar batı/güneybatıdan 6 kt
Görüş mesafesi 10 km veya daha fazla
2000 ft yükseklikte az bulutlu
Dönüşüyor
ayın 21'si saat 07 UTC'den ayın 21'si saat 09 UTC'ye kadar
Rüzgar güneydan 4 kt
Dönüşüyor
ayın 21'si saat 12 UTC'den ayın 21'si saat 14 UTC'ye kadar
Rüzgar kuzeydan 3 kt
2000 ft yükseklikte parçalı bulutlu

TAF: WIEE 202300Z 2100/2124 24006KT 9999 FEW020 BECMG 2107/2109 17004KT BECMG 2112/2114 01003KT SCT020

4.000'den fazla havaalanı için hava durumu gözlemleri ve tahminleri (METAR ve TAF raporları).

Kullanılabilir istasyonlar harita üzerinde sarı ve kırmızı noktalarla gösterilir.

İstasyonun adını görmek için fareyi noktanın üzerinde gezdirin.

Sonrasında hava gözlem ve tahminlerini görmek için tıklayın.

Haritayı değiştirmek için: yaklaştırmak için siyah artı işaretli yeşil düğmeye ve uzaklaştırmak için de eksi işaretli düğmeye hızla tıklayın; bitişik haritalar için yeşil okları kullanın.


METAR-TAF: